sensor_id;sensor_type;location;lat;lon;timestamp;P1;durP1;ratioP1;P2;durP2;ratioP2
22186;SDS011;11259;52.146;12.844;2022-09-09T00:02:03;1.63;;;1.52;;
22186;SDS011;11259;52.146;12.844;2022-09-09T00:04:34;1.48;;;1.20;;
22186;SDS011;11259;52.146;12.844;2022-09-09T00:07:03;1.50;;;1.40;;
22186;SDS011;11259;52.146;12.844;2022-09-09T00:09:29;1.50;;;1.40;;
22186;SDS011;11259;52.146;12.844;2022-09-09T00:11:58;3.33;;;1.60;;
22186;SDS011;11259;52.146;12.844;2022-09-09T00:14:29;1.77;;;1.60;;
22186;SDS011;11259;52.146;12.844;2022-09-09T00:17:00;1.58;;;1.48;;
22186;SDS011;11259;52.146;12.844;2022-09-09T00:19:29;2.00;;;1.73;;
22186;SDS011;11259;52.146;12.844;2022-09-09T00:22:00;2.20;;;1.60;;
22186;SDS011;11259;52.146;12.844;2022-09-09T00:24:33;1.73;;;1.63;;
22186;SDS011;11259;52.146;12.844;2022-09-09T00:27:06;1.80;;;1.50;;
22186;SDS011;11259;52.146;12.844;2022-09-09T00:29:37;1.50;;;1.40;;
22186;SDS011;11259;52.146;12.844;2022-09-09T00:32:09;2.30;;;2.10;;
22186;SDS011;11259;52.146;12.844;2022-09-09T00:34:37;1.60;;;1.50;;
22186;SDS011;11259;52.146;12.844;2022-09-09T00:37:11;2.08;;;1.80;;
22186;SDS011;11259;52.146;12.844;2022-09-09T00:39:37;1.70;;;1.60;;
22186;SDS011;11259;52.146;12.844;2022-09-09T00:42:11;2.17;;;1.83;;
22186;SDS011;11259;52.146;12.844;2022-09-09T00:44:39;2.00;;;1.73;;
22186;SDS011;11259;52.146;12.844;2022-09-09T00:47:19;2.00;;;1.65;;
22186;SDS011;11259;52.146;12.844;2022-09-09T00:50:00;1.50;;;1.40;;
22186;SDS011;11259;52.146;12.844;2022-09-09T00:52:28;1.90;;;1.70;;
22186;SDS011;11259;52.146;12.844;2022-09-09T00:55:02;1.70;;;1.60;;
22186;SDS011;11259;52.146;12.844;2022-09-09T00:57:32;1.88;;;1.65;;
22186;SDS011;11259;52.146;12.844;2022-09-09T01:00:00;1.98;;;1.50;;
22186;SDS011;11259;52.146;12.844;2022-09-09T01:02:43;1.85;;;1.70;;
22186;SDS011;11259;52.146;12.844;2022-09-09T01:05:15;1.77;;;1.65;;
22186;SDS011;11259;52.146;12.844;2022-09-09T01:07:44;2.88;;;1.73;;
22186;SDS011;11259;52.146;12.844;2022-09-09T01:10:15;2.10;;;1.90;;
22186;SDS011;11259;52.146;12.844;2022-09-09T01:12:48;1.98;;;1.77;;
22186;SDS011;11259;52.146;12.844;2022-09-09T01:15:15;2.10;;;1.70;;
22186;SDS011;11259;52.146;12.844;2022-09-09T01:17:50;1.48;;;1.38;;
22186;SDS011;11259;52.146;12.844;2022-09-09T01:20:20;1.83;;;1.63;;
22186;SDS011;11259;52.146;12.844;2022-09-09T01:22:49;1.73;;;1.58;;
22186;SDS011;11259;52.146;12.844;2022-09-09T01:25:29;2.92;;;1.60;;
22186;SDS011;11259;52.146;12.844;2022-09-09T01:28:12;1.95;;;1.83;;
22186;SDS011;11259;52.146;12.844;2022-09-09T01:30:42;2.22;;;1.80;;
22186;SDS011;11259;52.146;12.844;2022-09-09T01:33:08;2.10;;;1.90;;
22186;SDS011;11259;52.146;12.844;2022-09-09T01:35:37;2.00;;;1.70;;
22186;SDS011;11259;52.146;12.844;2022-09-09T01:38:07;1.90;;;1.60;;
22186;SDS011;11259;52.146;12.844;2022-09-09T01:40:32;2.05;;;1.90;;
22186;SDS011;11259;52.146;12.844;2022-09-09T01:42:58;1.88;;;1.70;;
22186;SDS011;11259;52.146;12.844;2022-09-09T01:45:25;2.50;;;1.88;;
22186;SDS011;11259;52.146;12.844;2022-09-09T01:47:51;2.13;;;1.92;;
22186;SDS011;11259;52.146;12.844;2022-09-09T01:50:17;2.78;;;1.98;;
22186;SDS011;11259;52.146;12.844;2022-09-09T01:52:43;2.13;;;1.73;;
22186;SDS011;11259;52.146;12.844;2022-09-09T01:55:09;1.48;;;1.38;;
22186;SDS011;11259;52.146;12.844;2022-09-09T01:57:36;2.00;;;1.85;;
22186;SDS011;11259;52.146;12.844;2022-09-09T02:00:05;2.53;;;1.92;;
22186;SDS011;11259;52.146;12.844;2022-09-09T02:02:35;1.90;;;1.75;;
22186;SDS011;11259;52.146;12.844;2022-09-09T02:05:06;1.33;;;1.20;;
22186;SDS011;11259;52.146;12.844;2022-09-09T02:07:38;2.00;;;1.80;;
22186;SDS011;11259;52.146;12.844;2022-09-09T02:10:05;1.98;;;1.58;;
22186;SDS011;11259;52.146;12.844;2022-09-09T02:12:35;1.20;;;1.10;;
22186;SDS011;11259;52.146;12.844;2022-09-09T02:15:03;1.60;;;1.50;;
22186;SDS011;11259;52.146;12.844;2022-09-09T02:17:30;1.30;;;1.20;;
22186;SDS011;11259;52.146;12.844;2022-09-09T02:19:59;1.38;;;1.27;;
22186;SDS011;11259;52.146;12.844;2022-09-09T02:22:29;1.80;;;1.70;;
22186;SDS011;11259;52.146;12.844;2022-09-09T02:24:56;1.55;;;1.45;;
22186;SDS011;11259;52.146;12.844;2022-09-09T02:27:22;1.55;;;1.35;;
22186;SDS011;11259;52.146;12.844;2022-09-09T02:29:48;1.20;;;1.10;;
22186;SDS011;11259;52.146;12.844;2022-09-09T02:32:15;1.60;;;1.33;;
22186;SDS011;11259;52.146;12.844;2022-09-09T02:34:45;1.33;;;1.23;;
22186;SDS011;11259;52.146;12.844;2022-09-09T02:37:13;2.28;;;1.30;;
22186;SDS011;11259;52.146;12.844;2022-09-09T02:39:40;1.20;;;1.10;;
22186;SDS011;11259;52.146;12.844;2022-09-09T02:42:06;1.42;;;1.30;;
22186;SDS011;11259;52.146;12.844;2022-09-09T02:44:31;1.10;;;1.00;;
22186;SDS011;11259;52.146;12.844;2022-09-09T02:47:04;1.10;;;1.00;;
22186;SDS011;11259;52.146;12.844;2022-09-09T02:49:39;1.58;;;1.20;;
22186;SDS011;11259;52.146;12.844;2022-09-09T02:52:08;1.40;;;1.17;;
22186;SDS011;11259;52.146;12.844;2022-09-09T02:54:39;0.98;;;0.95;;
22186;SDS011;11259;52.146;12.844;2022-09-09T02:57:06;1.50;;;1.30;;
22186;SDS011;11259;52.146;12.844;2022-09-09T02:59:34;1.20;;;1.15;;
22186;SDS011;11259;52.146;12.844;2022-09-09T03:01:59;1.73;;;1.20;;
22186;SDS011;11259;52.146;12.844;2022-09-09T03:04:25;1.10;;;1.00;;
22186;SDS011;11259;52.146;12.844;2022-09-09T03:06:50;0.95;;;0.95;;
22186;SDS011;11259;52.146;12.844;2022-09-09T03:09:17;1.10;;;1.00;;
22186;SDS011;11259;52.146;12.844;2022-09-09T03:11:42;0.80;;;0.80;;
22186;SDS011;11259;52.146;12.844;2022-09-09T03:14:08;1.20;;;1.10;;
22186;SDS011;11259;52.146;12.844;2022-09-09T03:16:33;1.50;;;1.25;;
22186;SDS011;11259;52.146;12.844;2022-09-09T03:18:59;1.23;;;0.82;;
22186;SDS011;11259;52.146;12.844;2022-09-09T03:21:24;1.10;;;1.00;;
22186;SDS011;11259;52.146;12.844;2022-09-09T03:23:50;2.65;;;1.10;;
22186;SDS011;11259;52.146;12.844;2022-09-09T03:26:16;1.10;;;1.00;;
22186;SDS011;11259;52.146;12.844;2022-09-09T03:28:42;1.10;;;1.00;;
22186;SDS011;11259;52.146;12.844;2022-09-09T03:31:07;1.30;;;1.20;;
22186;SDS011;11259;52.146;12.844;2022-09-09T03:33:33;1.10;;;1.00;;
22186;SDS011;11259;52.146;12.844;2022-09-09T03:35:58;1.02;;;0.93;;
22186;SDS011;11259;52.146;12.844;2022-09-09T03:38:24;1.15;;;1.15;;
22186;SDS011;11259;52.146;12.844;2022-09-09T03:40:50;1.00;;;1.00;;
22186;SDS011;11259;52.146;12.844;2022-09-09T03:43:17;1.50;;;1.05;;
22186;SDS011;11259;52.146;12.844;2022-09-09T03:45:44;1.20;;;1.10;;
22186;SDS011;11259;52.146;12.844;2022-09-09T03:48:10;1.00;;;1.00;;
22186;SDS011;11259;52.146;12.844;2022-09-09T03:50:35;0.95;;;0.95;;
22186;SDS011;11259;52.146;12.844;2022-09-09T03:53:01;1.20;;;1.10;;
22186;SDS011;11259;52.146;12.844;2022-09-09T03:55:26;1.30;;;1.17;;
22186;SDS011;11259;52.146;12.844;2022-09-09T03:57:51;0.90;;;0.90;;
22186;SDS011;11259;52.146;12.844;2022-09-09T04:00:18;1.40;;;1.10;;
22186;SDS011;11259;52.146;12.844;2022-09-09T04:02:43;1.20;;;1.10;;
22186;SDS011;11259;52.146;12.844;2022-09-09T04:05:09;1.13;;;1.02;;
22186;SDS011;11259;52.146;12.844;2022-09-09T04:07:34;0.80;;;0.80;;
22186;SDS011;11259;52.146;12.844;2022-09-09T04:09:59;1.27;;;1.17;;
22186;SDS011;11259;52.146;12.844;2022-09-09T04:12:25;1.65;;;1.40;;
22186;SDS011;11259;52.146;12.844;2022-09-09T04:14:50;1.13;;;1.02;;
22186;SDS011;11259;52.146;12.844;2022-09-09T04:17:17;0.93;;;0.93;;
22186;SDS011;11259;52.146;12.844;2022-09-09T04:19:42;1.27;;;1.17;;
22186;SDS011;11259;52.146;12.844;2022-09-09T04:22:07;1.17;;;1.08;;
22186;SDS011;11259;52.146;12.844;2022-09-09T04:24:33;1.00;;;0.90;;
22186;SDS011;11259;52.146;12.844;2022-09-09T04:26:58;1.08;;;1.08;;
22186;SDS011;11259;52.146;12.844;2022-09-09T04:29:23;1.20;;;1.10;;
22186;SDS011;11259;52.146;12.844;2022-09-09T04:31:49;1.25;;;1.10;;
22186;SDS011;11259;52.146;12.844;2022-09-09T04:34:15;1.02;;;1.00;;
22186;SDS011;11259;52.146;12.844;2022-09-09T04:36:41;1.20;;;1.00;;
22186;SDS011;11259;52.146;12.844;2022-09-09T04:39:06;1.13;;;1.02;;
22186;SDS011;11259;52.146;12.844;2022-09-09T04:41:32;3.15;;;1.70;;
22186;SDS011;11259;52.146;12.844;2022-09-09T04:43:57;1.58;;;1.20;;
22186;SDS011;11259;52.146;12.844;2022-09-09T04:46:23;0.93;;;0.90;;
22186;SDS011;11259;52.146;12.844;2022-09-09T04:48:48;1.30;;;1.20;;
22186;SDS011;11259;52.146;12.844;2022-09-09T04:51:15;1.88;;;1.02;;
22186;SDS011;11259;52.146;12.844;2022-09-09T04:53:40;1.20;;;1.10;;
22186;SDS011;11259;52.146;12.844;2022-09-09T04:56:06;1.33;;;1.23;;
22186;SDS011;11259;52.146;12.844;2022-09-09T04:58:33;1.30;;;1.20;;
22186;SDS011;11259;52.146;12.844;2022-09-09T05:01:05;1.40;;;1.00;;
22186;SDS011;11259;52.146;12.844;2022-09-09T05:03:31;1.10;;;1.00;;
22186;SDS011;11259;52.146;12.844;2022-09-09T05:06:01;1.05;;;1.02;;
22186;SDS011;11259;52.146;12.844;2022-09-09T05:08:29;1.10;;;1.00;;
22186;SDS011;11259;52.146;12.844;2022-09-09T05:10:54;1.15;;;1.05;;
22186;SDS011;11259;52.146;12.844;2022-09-09T05:13:19;1.30;;;1.20;;
22186;SDS011;11259;52.146;12.844;2022-09-09T05:15:50;1.15;;;1.05;;
22186;SDS011;11259;52.146;12.844;2022-09-09T05:18:16;1.40;;;1.30;;
22186;SDS011;11259;52.146;12.844;2022-09-09T05:20:42;1.65;;;1.27;;
22186;SDS011;11259;52.146;12.844;2022-09-09T05:23:07;6.20;;;1.10;;
22186;SDS011;11259;52.146;12.844;2022-09-09T05:25:34;1.30;;;1.20;;
22186;SDS011;11259;52.146;12.844;2022-09-09T05:27:59;1.10;;;1.02;;
22186;SDS011;11259;52.146;12.844;2022-09-09T05:30:25;1.30;;;1.17;;
22186;SDS011;11259;52.146;12.844;2022-09-09T05:32:50;0.90;;;0.90;;
22186;SDS011;11259;52.146;12.844;2022-09-09T05:35:16;0.90;;;0.90;;
22186;SDS011;11259;52.146;12.844;2022-09-09T05:37:41;0.90;;;0.85;;
22186;SDS011;11259;52.146;12.844;2022-09-09T05:40:07;0.88;;;0.88;;
22186;SDS011;11259;52.146;12.844;2022-09-09T05:42:34;1.13;;;1.02;;
22186;SDS011;11259;52.146;12.844;2022-09-09T05:44:59;1.10;;;1.00;;
22186;SDS011;11259;52.146;12.844;2022-09-09T05:47:24;1.30;;;1.20;;
22186;SDS011;11259;52.146;12.844;2022-09-09T05:49:50;0.80;;;0.80;;
22186;SDS011;11259;52.146;12.844;2022-09-09T05:52:15;0.93;;;0.93;;
22186;SDS011;11259;52.146;12.844;2022-09-09T05:54:40;1.27;;;1.17;;
22186;SDS011;11259;52.146;12.844;2022-09-09T05:57:06;1.17;;;1.00;;
22186;SDS011;11259;52.146;12.844;2022-09-09T05:59:32;1.17;;;1.00;;
22186;SDS011;11259;52.146;12.844;2022-09-09T06:01:58;1.23;;;1.10;;
22186;SDS011;11259;52.146;12.844;2022-09-09T06:04:23;1.10;;;1.00;;
22186;SDS011;11259;52.146;12.844;2022-09-09T06:06:48;0.88;;;0.88;;
22186;SDS011;11259;52.146;12.844;2022-09-09T06:09:14;0.80;;;0.80;;
22186;SDS011;11259;52.146;12.844;2022-09-09T06:11:39;0.90;;;0.90;;
22186;SDS011;11259;52.146;12.844;2022-09-09T06:14:05;0.75;;;0.75;;
22186;SDS011;11259;52.146;12.844;2022-09-09T06:16:32;1.23;;;1.13;;
22186;SDS011;11259;52.146;12.844;2022-09-09T06:18:58;1.05;;;0.93;;
22186;SDS011;11259;52.146;12.844;2022-09-09T06:21:24;0.90;;;0.90;;
22186;SDS011;11259;52.146;12.844;2022-09-09T06:23:50;0.80;;;0.80;;
22186;SDS011;11259;52.146;12.844;2022-09-09T06:26:16;0.90;;;0.90;;
22186;SDS011;11259;52.146;12.844;2022-09-09T06:28:42;1.00;;;0.82;;
22186;SDS011;11259;52.146;12.844;2022-09-09T06:31:08;1.75;;;1.20;;
22186;SDS011;11259;52.146;12.844;2022-09-09T06:33:36;1.25;;;0.80;;
22186;SDS011;11259;52.146;12.844;2022-09-09T06:36:03;1.00;;;0.90;;
22186;SDS011;11259;52.146;12.844;2022-09-09T06:38:29;0.98;;;0.90;;
22186;SDS011;11259;52.146;12.844;2022-09-09T06:40:54;0.80;;;0.80;;
22186;SDS011;11259;52.146;12.844;2022-09-09T06:43:20;0.70;;;0.70;;
22186;SDS011;11259;52.146;12.844;2022-09-09T06:45:52;1.10;;;0.90;;
22186;SDS011;11259;52.146;12.844;2022-09-09T06:48:18;0.90;;;0.90;;
22186;SDS011;11259;52.146;12.844;2022-09-09T06:50:45;1.05;;;0.98;;
22186;SDS011;11259;52.146;12.844;2022-09-09T06:53:10;0.70;;;0.70;;
22186;SDS011;11259;52.146;12.844;2022-09-09T06:55:35;0.88;;;0.88;;
22186;SDS011;11259;52.146;12.844;2022-09-09T06:58:00;1.77;;;0.88;;
22186;SDS011;11259;52.146;12.844;2022-09-09T07:00:26;1.08;;;0.80;;
22186;SDS011;11259;52.146;12.844;2022-09-09T07:02:51;0.70;;;0.70;;
22186;SDS011;11259;52.146;12.844;2022-09-09T07:05:16;0.70;;;0.70;;
22186;SDS011;11259;52.146;12.844;2022-09-09T07:07:43;0.80;;;0.80;;
22186;SDS011;11259;52.146;12.844;2022-09-09T07:10:08;0.80;;;0.80;;
22186;SDS011;11259;52.146;12.844;2022-09-09T07:12:34;1.15;;;0.80;;
22186;SDS011;11259;52.146;12.844;2022-09-09T07:14:59;1.15;;;0.65;;
22186;SDS011;11259;52.146;12.844;2022-09-09T07:17:24;0.77;;;0.77;;
22186;SDS011;11259;52.146;12.844;2022-09-09T07:19:50;1.17;;;0.75;;
22186;SDS011;11259;52.146;12.844;2022-09-09T07:22:15;0.60;;;0.60;;
22186;SDS011;11259;52.146;12.844;2022-09-09T07:24:42;0.70;;;0.70;;
22186;SDS011;11259;52.146;12.844;2022-09-09T07:27:07;0.80;;;0.80;;
22186;SDS011;11259;52.146;12.844;2022-09-09T07:29:32;1.27;;;0.77;;
22186;SDS011;11259;52.146;12.844;2022-09-09T07:31:58;1.30;;;1.00;;
22186;SDS011;11259;52.146;12.844;2022-09-09T07:34:23;1.10;;;0.93;;
22186;SDS011;11259;52.146;12.844;2022-09-09T07:36:48;1.08;;;0.73;;
22186;SDS011;11259;52.146;12.844;2022-09-09T07:39:14;1.13;;;0.90;;
22186;SDS011;11259;52.146;12.844;2022-09-09T07:41:41;0.70;;;0.70;;
22186;SDS011;11259;52.146;12.844;2022-09-09T07:44:08;0.88;;;0.77;;
22186;SDS011;11259;52.146;12.844;2022-09-09T07:46:35;1.55;;;1.00;;
22186;SDS011;11259;52.146;12.844;2022-09-09T07:49:00;0.88;;;0.77;;
22186;SDS011;11259;52.146;12.844;2022-09-09T07:51:26;0.77;;;0.77;;
22186;SDS011;11259;52.146;12.844;2022-09-09T07:53:53;1.10;;;0.95;;
22186;SDS011;11259;52.146;12.844;2022-09-09T07:56:20;0.82;;;0.82;;
22186;SDS011;11259;52.146;12.844;2022-09-09T07:58:47;0.90;;;0.90;;
22186;SDS011;11259;52.146;12.844;2022-09-09T08:01:13;1.30;;;1.20;;
22186;SDS011;11259;52.146;12.844;2022-09-09T08:03:39;1.23;;;1.08;;
22186;SDS011;11259;52.146;12.844;2022-09-09T08:06:06;1.48;;;0.95;;
22186;SDS011;11259;52.146;12.844;2022-09-09T08:08:33;1.13;;;1.00;;
22186;SDS011;11259;52.146;12.844;2022-09-09T08:11:02;1.15;;;1.00;;
22186;SDS011;11259;52.146;12.844;2022-09-09T08:13:28;1.27;;;1.17;;
22186;SDS011;11259;52.146;12.844;2022-09-09T08:15:55;0.90;;;0.90;;
22186;SDS011;11259;52.146;12.844;2022-09-09T08:18:20;1.00;;;1.00;;
22186;SDS011;11259;52.146;12.844;2022-09-09T08:20:45;1.08;;;1.00;;
22186;SDS011;11259;52.146;12.844;2022-09-09T08:23:11;0.77;;;0.77;;
22186;SDS011;11259;52.146;12.844;2022-09-09T08:25:36;0.90;;;0.85;;
22186;SDS011;11259;52.146;12.844;2022-09-09T08:28:01;0.90;;;0.90;;
22186;SDS011;11259;52.146;12.844;2022-09-09T08:30:27;1.17;;;1.08;;
22186;SDS011;11259;52.146;12.844;2022-09-09T08:32:53;1.00;;;0.80;;
22186;SDS011;11259;52.146;12.844;2022-09-09T08:35:19;0.70;;;0.70;;
22186;SDS011;11259;52.146;12.844;2022-09-09T08:37:44;0.80;;;0.80;;
22186;SDS011;11259;52.146;12.844;2022-09-09T08:40:10;1.10;;;0.88;;
22186;SDS011;11259;52.146;12.844;2022-09-09T08:42:43;0.95;;;0.77;;
22186;SDS011;11259;52.146;12.844;2022-09-09T08:45:13;1.45;;;1.35;;
22186;SDS011;11259;52.146;12.844;2022-09-09T08:47:46;0.90;;;0.90;;
22186;SDS011;11259;52.146;12.844;2022-09-09T08:50:21;0.70;;;0.70;;
22186;SDS011;11259;52.146;12.844;2022-09-09T08:52:51;0.85;;;0.82;;
22186;SDS011;11259;52.146;12.844;2022-09-09T08:55:21;0.75;;;0.65;;
22186;SDS011;11259;52.146;12.844;2022-09-09T08:57:49;1.08;;;1.00;;
22186;SDS011;11259;52.146;12.844;2022-09-09T09:00:16;1.67;;;0.80;;
22186;SDS011;11259;52.146;12.844;2022-09-09T09:02:42;1.02;;;0.80;;
22186;SDS011;11259;52.146;12.844;2022-09-09T09:05:17;0.80;;;0.80;;
22186;SDS011;11259;52.146;12.844;2022-09-09T09:07:49;0.80;;;0.80;;
22186;SDS011;11259;52.146;12.844;2022-09-09T09:12:49;10.65;;;0.80;;
22186;SDS011;11259;52.146;12.844;2022-09-09T09:15:16;1.50;;;0.80;;
22186;SDS011;11259;52.146;12.844;2022-09-09T09:17:43;0.70;;;0.70;;
22186;SDS011;11259;52.146;12.844;2022-09-09T09:20:11;1.58;;;0.80;;
22186;SDS011;11259;52.146;12.844;2022-09-09T09:22:41;2.60;;;1.02;;
22186;SDS011;11259;52.146;12.844;2022-09-09T09:25:11;0.75;;;0.75;;
22186;SDS011;11259;52.146;12.844;2022-09-09T09:27:43;1.20;;;0.90;;
22186;SDS011;11259;52.146;12.844;2022-09-09T09:30:14;0.80;;;0.80;;
22186;SDS011;11259;52.146;12.844;2022-09-09T09:32:49;2.08;;;0.85;;
22186;SDS011;11259;52.146;12.844;2022-09-09T09:35:18;0.85;;;0.85;;
22186;SDS011;11259;52.146;12.844;2022-09-09T09:37:44;1.00;;;0.80;;
22186;SDS011;11259;52.146;12.844;2022-09-09T09:40:11;0.70;;;0.70;;
22186;SDS011;11259;52.146;12.844;2022-09-09T09:42:37;0.75;;;0.70;;
22186;SDS011;11259;52.146;12.844;2022-09-09T09:45:13;1.35;;;0.70;;
22186;SDS011;11259;52.146;12.844;2022-09-09T09:47:40;0.90;;;0.90;;
22186;SDS011;11259;52.146;12.844;2022-09-09T09:50:15;0.70;;;0.70;;
22186;SDS011;11259;52.146;12.844;2022-09-09T09:52:41;0.60;;;0.60;;
22186;SDS011;11259;52.146;12.844;2022-09-09T09:55:13;1.10;;;1.00;;
22186;SDS011;11259;52.146;12.844;2022-09-09T09:57:39;0.73;;;0.73;;
22186;SDS011;11259;52.146;12.844;2022-09-09T10:00:04;0.80;;;0.80;;
22186;SDS011;11259;52.146;12.844;2022-09-09T10:02:39;0.82;;;0.70;;
22186;SDS011;11259;52.146;12.844;2022-09-09T10:05:08;1.33;;;0.90;;
22186;SDS011;11259;52.146;12.844;2022-09-09T10:07:38;0.75;;;0.75;;
22186;SDS011;11259;52.146;12.844;2022-09-09T10:10:04;0.70;;;0.70;;
22186;SDS011;11259;52.146;12.844;2022-09-09T10:12:36;1.40;;;1.00;;
22186;SDS011;11259;52.146;12.844;2022-09-09T10:15:07;0.95;;;0.80;;
22186;SDS011;11259;52.146;12.844;2022-09-09T10:17:53;0.60;;;0.60;;
22186;SDS011;11259;52.146;12.844;2022-09-09T10:20:24;1.20;;;0.60;;
22186;SDS011;11259;52.146;12.844;2022-09-09T10:22:59;0.77;;;0.77;;
22186;SDS011;11259;52.146;12.844;2022-09-09T10:25:35;0.60;;;0.60;;
22186;SDS011;11259;52.146;12.844;2022-09-09T10:28:26;0.60;;;0.60;;
22186;SDS011;11259;52.146;12.844;2022-09-09T10:31:00;0.75;;;0.60;;
22186;SDS011;11259;52.146;12.844;2022-09-09T10:33:33;0.50;;;0.50;;
22186;SDS011;11259;52.146;12.844;2022-09-09T10:36:02;0.63;;;0.63;;
22186;SDS011;11259;52.146;12.844;2022-09-09T10:38:33;0.55;;;0.55;;
22186;SDS011;11259;52.146;12.844;2022-09-09T10:41:09;0.90;;;0.50;;
22186;SDS011;11259;52.146;12.844;2022-09-09T10:46:38;0.85;;;0.80;;
22186;SDS011;11259;52.146;12.844;2022-09-09T10:49:12;0.50;;;0.50;;
22186;SDS011;11259;52.146;12.844;2022-09-09T10:51:44;0.60;;;0.60;;
22186;SDS011;11259;52.146;12.844;2022-09-09T10:54:16;0.63;;;0.60;;
22186;SDS011;11259;52.146;12.844;2022-09-09T10:56:51;0.50;;;0.50;;
22186;SDS011;11259;52.146;12.844;2022-09-09T10:59:21;0.50;;;0.50;;
22186;SDS011;11259;52.146;12.844;2022-09-09T11:01:50;0.63;;;0.63;;
22186;SDS011;11259;52.146;12.844;2022-09-09T11:04:18;0.60;;;0.60;;
22186;SDS011;11259;52.146;12.844;2022-09-09T11:06:47;0.60;;;0.60;;
22186;SDS011;11259;52.146;12.844;2022-09-09T11:09:15;1.95;;;0.90;;
22186;SDS011;11259;52.146;12.844;2022-09-09T11:11:43;0.50;;;0.50;;
22186;SDS011;11259;52.146;12.844;2022-09-09T11:14:14;0.82;;;0.80;;
22186;SDS011;11259;52.146;12.844;2022-09-09T11:16:46;0.80;;;0.77;;
22186;SDS011;11259;52.146;12.844;2022-09-09T11:19:15;1.00;;;0.70;;
22186;SDS011;11259;52.146;12.844;2022-09-09T11:21:44;0.60;;;0.60;;
22186;SDS011;11259;52.146;12.844;2022-09-09T11:24:11;0.75;;;0.68;;
22186;SDS011;11259;52.146;12.844;2022-09-09T11:26:41;0.80;;;0.80;;
22186;SDS011;11259;52.146;12.844;2022-09-09T11:29:15;0.60;;;0.60;;
22186;SDS011;11259;52.146;12.844;2022-09-09T11:32:03;0.60;;;0.60;;
22186;SDS011;11259;52.146;12.844;2022-09-09T11:34:39;0.65;;;0.65;;
22186;SDS011;11259;52.146;12.844;2022-09-09T11:37:16;0.60;;;0.60;;
22186;SDS011;11259;52.146;12.844;2022-09-09T11:39:52;0.60;;;0.60;;
22186;SDS011;11259;52.146;12.844;2022-09-09T11:42:25;0.70;;;0.60;;
22186;SDS011;11259;52.146;12.844;2022-09-09T11:44:50;0.70;;;0.70;;
22186;SDS011;11259;52.146;12.844;2022-09-09T11:47:20;1.05;;;1.05;;
22186;SDS011;11259;52.146;12.844;2022-09-09T11:49:48;0.77;;;0.68;;
22186;SDS011;11259;52.146;12.844;2022-09-09T11:52:18;0.80;;;0.70;;
22186;SDS011;11259;52.146;12.844;2022-09-09T11:54:47;0.65;;;0.63;;
22186;SDS011;11259;52.146;12.844;2022-09-09T11:57:21;0.70;;;0.70;;
22186;SDS011;11259;52.146;12.844;2022-09-09T11:59:50;1.85;;;0.80;;
22186;SDS011;11259;52.146;12.844;2022-09-09T12:02:17;1.65;;;0.65;;
22186;SDS011;11259;52.146;12.844;2022-09-09T12:04:47;0.70;;;0.70;;
22186;SDS011;11259;52.146;12.844;2022-09-09T12:07:23;2.05;;;0.95;;
22186;SDS011;11259;52.146;12.844;2022-09-09T12:09:52;0.85;;;0.85;;
22186;SDS011;11259;52.146;12.844;2022-09-09T12:12:23;1.80;;;0.77;;
22186;SDS011;11259;52.146;12.844;2022-09-09T12:14:55;0.80;;;0.70;;
22186;SDS011;11259;52.146;12.844;2022-09-09T12:17:24;0.70;;;0.70;;
22186;SDS011;11259;52.146;12.844;2022-09-09T12:19:59;0.90;;;0.90;;
22186;SDS011;11259;52.146;12.844;2022-09-09T12:22:26;0.80;;;0.80;;
22186;SDS011;11259;52.146;12.844;2022-09-09T12:24:57;0.80;;;0.80;;
22186;SDS011;11259;52.146;12.844;2022-09-09T12:27:26;0.90;;;0.70;;
22186;SDS011;11259;52.146;12.844;2022-09-09T12:29:54;0.88;;;0.70;;
22186;SDS011;11259;52.146;12.844;2022-09-09T12:32:25;3.53;;;0.90;;
22186;SDS011;11259;52.146;12.844;2022-09-09T12:34:52;1.38;;;0.68;;
22186;SDS011;11259;52.146;12.844;2022-09-09T12:37:21;0.75;;;0.75;;
22186;SDS011;11259;52.146;12.844;2022-09-09T12:39:53;2.05;;;0.70;;
22186;SDS011;11259;52.146;12.844;2022-09-09T12:42:21;0.70;;;0.70;;
22186;SDS011;11259;52.146;12.844;2022-09-09T12:44:50;0.70;;;0.70;;
22186;SDS011;11259;52.146;12.844;2022-09-09T12:47:20;1.25;;;0.70;;
22186;SDS011;11259;52.146;12.844;2022-09-09T12:49:48;0.68;;;0.68;;
22186;SDS011;11259;52.146;12.844;2022-09-09T12:52:16;0.50;;;0.50;;
22186;SDS011;11259;52.146;12.844;2022-09-09T12:54:45;1.38;;;0.55;;
22186;SDS011;11259;52.146;12.844;2022-09-09T12:57:12;0.50;;;0.50;;
22186;SDS011;11259;52.146;12.844;2022-09-09T12:59:38;0.68;;;0.68;;
22186;SDS011;11259;52.146;12.844;2022-09-09T13:02:11;0.52;;;0.52;;
22186;SDS011;11259;52.146;12.844;2022-09-09T13:04:41;1.38;;;0.93;;
22186;SDS011;11259;52.146;12.844;2022-09-09T13:07:08;0.40;;;0.40;;
22186;SDS011;11259;52.146;12.844;2022-09-09T13:09:34;0.70;;;0.50;;
22186;SDS011;11259;52.146;12.844;2022-09-09T13:11:59;0.40;;;0.40;;
22186;SDS011;11259;52.146;12.844;2022-09-09T13:14:26;0.50;;;0.50;;
22186;SDS011;11259;52.146;12.844;2022-09-09T13:16:54;0.40;;;0.40;;
22186;SDS011;11259;52.146;12.844;2022-09-09T13:19:21;1.13;;;1.02;;
22186;SDS011;11259;52.146;12.844;2022-09-09T13:21:46;0.60;;;0.60;;
22186;SDS011;11259;52.146;12.844;2022-09-09T13:24:23;1.17;;;0.75;;
22186;SDS011;11259;52.146;12.844;2022-09-09T13:26:53;0.60;;;0.60;;
22186;SDS011;11259;52.146;12.844;2022-09-09T13:29:19;1.27;;;0.90;;
22186;SDS011;11259;52.146;12.844;2022-09-09T13:31:45;0.70;;;0.70;;
22186;SDS011;11259;52.146;12.844;2022-09-09T13:34:11;0.65;;;0.65;;
22186;SDS011;11259;52.146;12.844;2022-09-09T13:36:36;0.80;;;0.80;;
22186;SDS011;11259;52.146;12.844;2022-09-09T13:39:02;0.73;;;0.70;;
22186;SDS011;11259;52.146;12.844;2022-09-09T13:41:31;0.80;;;0.60;;
22186;SDS011;11259;52.146;12.844;2022-09-09T13:43:58;0.75;;;0.57;;
22186;SDS011;11259;52.146;12.844;2022-09-09T13:46:25;1.73;;;0.73;;
22186;SDS011;11259;52.146;12.844;2022-09-09T13:48:55;1.02;;;0.70;;
22186;SDS011;11259;52.146;12.844;2022-09-09T13:51:25;0.82;;;0.80;;
22186;SDS011;11259;52.146;12.844;2022-09-09T13:53:54;0.95;;;0.73;;
22186;SDS011;11259;52.146;12.844;2022-09-09T13:56:19;0.60;;;0.60;;
22186;SDS011;11259;52.146;12.844;2022-09-09T13:58:46;0.70;;;0.70;;
22186;SDS011;11259;52.146;12.844;2022-09-09T14:01:12;0.50;;;0.50;;
22186;SDS011;11259;52.146;12.844;2022-09-09T14:03:37;1.00;;;0.65;;
22186;SDS011;11259;52.146;12.844;2022-09-09T14:06:02;0.50;;;0.50;;
22186;SDS011;11259;52.146;12.844;2022-09-09T14:08:28;0.80;;;0.50;;
22186;SDS011;11259;52.146;12.844;2022-09-09T14:10:53;0.75;;;0.73;;
22186;SDS011;11259;52.146;12.844;2022-09-09T14:13:18;0.60;;;0.60;;
22186;SDS011;11259;52.146;12.844;2022-09-09T14:15:45;0.80;;;0.50;;
22186;SDS011;11259;52.146;12.844;2022-09-09T14:18:13;0.65;;;0.60;;
22186;SDS011;11259;52.146;12.844;2022-09-09T14:20:39;0.55;;;0.55;;
22186;SDS011;11259;52.146;12.844;2022-09-09T14:23:04;0.93;;;0.70;;
22186;SDS011;11259;52.146;12.844;2022-09-09T14:25:30;1.95;;;0.80;;
22186;SDS011;11259;52.146;12.844;2022-09-09T14:27:55;0.73;;;0.70;;
22186;SDS011;11259;52.146;12.844;2022-09-09T14:30:20;0.88;;;0.60;;
22186;SDS011;11259;52.146;12.844;2022-09-09T14:32:47;0.57;;;0.57;;
22186;SDS011;11259;52.146;12.844;2022-09-09T14:35:12;1.08;;;0.90;;
22186;SDS011;11259;52.146;12.844;2022-09-09T14:37:37;0.70;;;0.57;;
22186;SDS011;11259;52.146;12.844;2022-09-09T14:40:03;0.50;;;0.50;;
22186;SDS011;11259;52.146;12.844;2022-09-09T14:42:29;0.50;;;0.50;;
22186;SDS011;11259;52.146;12.844;2022-09-09T14:44:54;0.52;;;0.52;;